Tahitian Princess — ZCDD8 — position and weather

sailwx.info

Track history (hours):
 
Tides and Currents Weather Stations Pressure Air Temp Water Temp Dewpoint Dewpoint Depression Visibility Wind Speed Wind Dir Waves Ship Positions

Tahitian Princess

Operator: P & O Irish Sea Ltd

Last reported at 2017-Jul-24 08:00 UTC. Time now 2017-Jul-24 08:25 UTC.
Position N 53°27' W 003°01'.

Length 167 m; draft 5.8 m.

Type: Passenger vessel. MMSI: 310362000.

Date/timePositionNaut miles runAvg speedWind from/ knotsBaromVisibWave heightAir tempDewpointWater temp
2017-Jul-24 08:00N 53°27' W 003°01'0 0.0
2017-Jul-24 07:30N 53°27' W 003°01'0 0.0
2017-Jul-24 07:00N 53°27' W 003°01'0 0.0
2017-Jul-24 06:30N 53°27' W 003°01'0 0.0
2017-Jul-24 06:00N 53°27' W 003°01'0 0.0
2017-Jul-24 05:30N 53°27' W 003°01'0 0.3
2017-Jul-24 05:00N 53°27' W 003°01'0 0.8
2017-Jul-24 04:30N 53°27' W 003°01'0 0.7
2017-Jul-24 04:00N 53°27' W 003°02'510.5
2017-Jul-24 03:30N 53°31' W 003°07'714.6
2017-Jul-24 03:00N 53°31' W 003°20'713.9
2017-Jul-24 02:30N 53°31' W 003°31'713.1
2017-Jul-24 02:00N 53°31' W 003°42'714.8
2017-Jul-24 01:30N 53°32' W 003°54'714.6
2017-Jul-24 01:00N 53°33' W 004°07'6316.1
2017-Jul-23 21:03N 53°23' W 005°52'617.7
2017-Jul-23 20:43N 53°21' W 006°01'416.3
2017-Jul-23 20:28N 53°21' W 006°08'3 5.9
2017-Jul-23 20:00N 53°21' W 006°13'0 0.1
2017-Jul-23 16:06N 53°21' W 006°13'0 0.0
2017-Jul-23 12:33N 53°21' W 006°13'0 0.0
2017-Jul-23 06:24N 53°21' W 006°13'0 0.0
2017-Jul-23 04:55N 53°21' W 006°13'0 1.0
2017-Jul-23 04:30N 53°21' W 006°12'510.6
2017-Jul-23 04:00N 53°20' W 006°04'816.0
2017-Jul-23 03:30N 53°25' W 005°52'4614.9
2017-Jul-23 00:26N 53°37' W 004°38'815.5
2017-Jul-22 23:53N 53°37' W 004°24'1015.4
2017-Jul-22 23:12N 53°35' W 004°06'417.8
2017-Jul-22 23:00N 53°35' W 004°00'917.8
2017-Jul-22 22:30N 53°34' W 003°45'917.0
2017-Jul-22 22:00N 53°33' W 003°31'816.9
2017-Jul-22 21:30N 53°32' W 003°17'815.6
2017-Jul-22 21:00N 53°29' W 003°05'3 6.2
2017-Jul-22 20:30N 53°27' W 003°01'0 0.9
2017-Jul-22 20:00N 53°27' W 003°01'0 0.0
2017-Jul-22 19:28N 53°27' W 003°01'0 0.0
2017-Jul-22 18:58N 53°27' W 003°01'0 0.0
2017-Jul-22 18:30N 53°27' W 003°01'0 0.0
2017-Jul-22 18:00N 53°27' W 003°01'0 0.0
2017-Jul-22 17:30N 53°27' W 003°01'0 0.0
2017-Jul-22 17:00N 53°27' W 003°01'0 0.0
2017-Jul-22 16:30N 53°27' W 003°01'0 0.0
2017-Jul-22 16:01N 53°27' W 003°01'0 0.8
2017-Jul-22 15:30N 53°27' W 003°01'0 0.4
2017-Jul-22 15:01N 53°27' W 003°01'1212.2
2017-Jul-22 14:00N 53°31' W 003°20'816.5
2017-Jul-22 13:30N 53°31' W 003°34'816.1
2017-Jul-22 13:00N 53°31' W 003°48'917.1
2017-Jul-22 12:30N 53°32' W 004°02'6418.2
2017-Jul-22 08:59N 53°23' W 005°49'1019.4
2017-Jul-22 08:29N 53°20' W 006°04'511.3
2017-Jul-22 08:00N 53°21' W 006°13'0 0.3
2017-Jul-22 07:18N 53°21' W 006°13'0 0.0
2017-Jul-22 07:00N 53°21' W 006°13'0 0.0
2017-Jul-22 06:30N 53°21' W 006°13'0 0.0
2017-Jul-22 05:54N 53°21' W 006°13'0 0.0
2017-Jul-22 05:29N 53°21' W 006°13'0 0.0
2017-Jul-22 04:57N 53°21' W 006°13'0 0.0
2017-Jul-22 04:28N 53°21' W 006°13'0 0.2
2017-Jul-22 03:59N 53°21' W 006°13'4 8.1
2017-Jul-22 03:30N 53°20' W 006°06'1016.9
2017-Jul-22 02:56N 53°24' W 005°51'6416.9
2017-Jul-21 23:10N 53°36' W 004°06'319.7
2017-Jul-21 23:00N 53°35' W 004°01'1019.7
2017-Jul-21 22:30N 53°34' W 003°45'1019.1
2017-Jul-21 22:00N 53°33' W 003°29'918.6
2017-Jul-21 21:30N 53°31' W 003°13'815.8
2017-Jul-21 21:00N 53°27' W 003°02'1 2.2
2017-Jul-21 20:30N 53°26' W 003°01'1 1.2
2017-Jul-21 20:00N 53°27' W 003°01'1 1.0
2017-Jul-21 19:30N 53°27' W 003°01'0 0.0
2017-Jul-21 19:00N 53°27' W 003°01'0 0.0
2017-Jul-21 18:30N 53°27' W 003°01'0 0.0
2017-Jul-21 18:00N 53°27' W 003°01'0 0.0
2017-Jul-21 17:30N 53°27' W 003°01'0 0.0
2017-Jul-21 17:00N 53°27' W 003°01'0 0.0
2017-Jul-21 16:30N 53°27' W 003°01'0 0.0
2017-Jul-21 16:00N 53°27' W 003°01'0 0.8
2017-Jul-21 15:30N 53°27' W 003°01'0 0.4
2017-Jul-21 15:00N 53°27' W 003°01'612.2
2017-Jul-21 14:31N 53°31' W 003°08'815.7
2017-Jul-21 14:00N 53°31' W 003°21'816.6
2017-Jul-21 13:31N 53°31' W 003°35'917.2
2017-Jul-21 13:00N 53°32' W 003°49'917.4
2017-Jul-21 12:30N 53°33' W 004°04'6318.6
2017-Jul-21 09:06N 53°23' W 005°49'719.8
2017-Jul-21 08:45N 53°21' W 005°60'415.3
2017-Jul-21 08:28N 53°20' W 006°07'4 7.9
2017-Jul-21 08:00N 53°21' W 006°13'0 0.0
2017-Jul-21 07:10N 53°21' W 006°13'0 0.0
2017-Jul-21 04:46N 53°21' W 006°13'0 0.0
2017-Jul-21 04:16N 53°21' W 006°13'0 0.3
2017-Jul-21 03:54N 53°21' W 006°13'711.2
2017-Jul-21 03:18N 53°21' W 006°02'615.9
2017-Jul-21 02:57N 53°23' W 005°53'6816.1
2017-Jul-20 22:43N 53°35' W 004°00'418.2
2017-Jul-20 22:30N 53°35' W 003°54'917.7
2017-Jul-20 21:59N 53°34' W 003°38'817.3
2017-Jul-20 21:30N 53°33' W 003°24'917.3
2017-Jul-20 21:00N 53°32' W 003°10'714.2
2017-Jul-20 20:30N 53°27' W 003°01'0 0.9
2017-Jul-20 20:00N 53°27' W 003°01'0 0.0
2017-Jul-20 19:30N 53°27' W 003°01'0 0.0
2017-Jul-20 19:00N 53°27' W 003°01'0 0.0
2017-Jul-20 18:31N 53°27' W 003°01'0 0.0
2017-Jul-20 18:00N 53°27' W 003°01'0 0.0
2017-Jul-20 17:30N 53°27' W 003°01'0 0.0
2017-Jul-20 17:00N 53°27' W 003°01'0 0.0
2017-Jul-20 16:31N 53°27' W 003°01'0 0.8
2017-Jul-20 16:00N 53°27' W 003°01'0 0.0
2017-Jul-20 15:31N 53°27' W 003°01'0 0.5
2017-Jul-20 15:01N 53°27' W 003°01'1212.0
2017-Jul-20 14:00N 53°31' W 003°20'918.3
2017-Jul-20 13:30N 53°31' W 003°36'917.9
2017-Jul-20 13:00N 53°32' W 003°51'7218.7
2017-Jul-20 09:09N 53°23' W 005°50'618.6
2017-Jul-20 08:50N 53°21' W 005°60'616.4
2017-Jul-20 08:30N 53°21' W 006°09'3 4.7
2017-Jul-20 07:57N 53°21' W 006°13'0 0.0
2017-Jul-20 07:30N 53°21' W 006°13'0 0.0
2017-Jul-20 06:25N 53°21' W 006°13'0 0.0
2017-Jul-20 05:59N 53°21' W 006°13'0 0.0
2017-Jul-20 04:33N 53°21' W 006°13'0 0.0
2017-Jul-20 04:30N 53°21' W 006°13'0 0.2
2017-Jul-20 03:59N 53°21' W 006°13'4 9.1
2017-Jul-20 03:30N 53°20' W 006°06'815.9
2017-Jul-20 02:59N 53°23' W 005°53'6616.8
2017-Jul-19 23:02N 53°35' W 004°03'117.5
2017-Jul-19 23:00N 53°35' W 004°02'917.3
2017-Jul-19 22:29N 53°34' W 003°47'816.9
2017-Jul-19 22:00N 53°33' W 003°33'917.3
2017-Jul-19 21:30N 53°32' W 003°19'817.0
2017-Jul-19 21:00N 53°30' W 003°05'4 7.3
2017-Jul-19 20:30N 53°27' W 003°01'0 0.0
2017-Jul-19 20:00N 53°27' W 003°01'0 0.9
2017-Jul-19 19:30N 53°27' W 003°01'0 0.0
2017-Jul-19 19:00N 53°27' W 003°01'0 0.0
2017-Jul-19 18:30N 53°27' W 003°01'0 0.0
2017-Jul-19 18:00N 53°27' W 003°01'0 0.0
2017-Jul-19 17:31N 53°27' W 003°01'0 0.0
2017-Jul-19 17:00N 53°27' W 003°01'0 0.0
2017-Jul-19 16:30N 53°27' W 003°01'0 0.0
2017-Jul-19 16:00N 53°27' W 003°01'0 0.8
2017-Jul-19 15:30N 53°27' W 003°01'0 0.0
2017-Jul-19 15:00N 53°27' W 003°01'3 6.5
2017-Jul-19 14:30N 53°29' W 003°05'714.6
2017-Jul-19 14:00N 53°31' W 003°17'918.5
2017-Jul-19 13:30N 53°31' W 003°32'918.1
2017-Jul-19 13:00N 53°32' W 003°48'918.1
2017-Jul-19 12:30N 53°34' W 004°03'6319.1
2017-Jul-19 09:12N 53°23' W 005°47'520.4
2017-Jul-19 08:57N 53°22' W 005°56'817.3
2017-Jul-19 08:29N 53°21' W 006°09'3 5.3
2017-Jul-19 08:00N 53°21' W 006°13'0 0.0
2017-Jul-19 07:30N 53°21' W 006°13'0 0.0
2017-Jul-19 06:57N 53°21' W 006°13'0 0.0
2017-Jul-19 06:30N 53°21' W 006°13'0 0.0
2017-Jul-19 06:00N 53°21' W 006°13'0 0.0
2017-Jul-19 05:31N 53°21' W 006°13'0 0.0
2017-Jul-19 04:58N 53°21' W 006°13'0 0.0
2017-Jul-19 04:27N 53°21' W 006°13'0 0.1
2017-Jul-19 04:00N 53°21' W 006°13'4 6.9
2017-Jul-19 03:30N 53°21' W 006°07'816.5
2017-Jul-19 03:00N 53°23' W 005°54'816.8
2017-Jul-19 02:30N 53°27' W 005°41'5618.3
2017-Jul-18 23:27N 53°35' W 004°08'1319.9
2017-Jul-18 22:49N 53°34' W 003°47'619.6
2017-Jul-18 22:30N 53°34' W 003°37'1019.8
2017-Jul-18 22:00N 53°33' W 003°20'917.8
2017-Jul-18 21:30N 53°30' W 003°06'4 8.9
2017-Jul-18 21:00N 53°27' W 003°01'0 0.9
2017-Jul-18 20:30N 53°27' W 003°01'0 0.0
2017-Jul-18 20:00N 53°27' W 003°01'0 0.0
2017-Jul-18 19:30N 53°27' W 003°01'0 0.0
2017-Jul-18 19:00N 53°27' W 003°01'0 0.0
2017-Jul-18 18:30N 53°27' W 003°01'0 0.0
2017-Jul-18 18:00N 53°27' W 003°01'0 0.0
2017-Jul-18 17:30N 53°27' W 003°01'0 0.0
2017-Jul-18 17:00N 53°27' W 003°01'0 0.0
2017-Jul-18 16:30N 53°27' W 003°01'0 0.0
2017-Jul-18 16:00N 53°27' W 003°01'0 0.4
2017-Jul-18 15:30N 53°27' W 003°01'0 0.6
2017-Jul-18 15:00N 53°27' W 003°01'1212.0
2017-Jul-18 14:00N 53°31' W 003°20'1018.9
2017-Jul-18 13:30N 53°31' W 003°36'918.6
2017-Jul-18 13:00N 53°31' W 003°51'1120.5
2017-Jul-18 12:29N 53°34' W 004°09'2019.9
2017-Jul-18 11:28N 53°35' W 004°43'919.5
2017-Jul-18 11:00N 53°33' W 004°58'1019.4
2017-Jul-18 10:29N 53°30' W 005°14'918.3
2017-Jul-18 10:00N 53°27' W 005°29'918.5
2017-Jul-18 09:29N 53°24' W 005°44'1018.3
2017-Jul-18 08:56N 53°21' W 005°60'512.7
2017-Jul-18 08:30N 53°21' W 006°09'3 5.1
2017-Jul-18 08:00N 53°21' W 006°13'0 0.0
2017-Jul-18 07:30N 53°21' W 006°13'0 0.0
2017-Jul-18 06:58N 53°21' W 006°13'0 0.0
2017-Jul-18 06:27N 53°21' W 006°13'0 0.0
2017-Jul-18 06:00N 53°21' W 006°13'0 0.0
2017-Jul-18 05:30N 53°21' W 006°13'0 0.0
2017-Jul-18 04:59N 53°21' W 006°13'0 0.0
2017-Jul-18 04:30N 53°21' W 006°13'0 0.0
2017-Jul-18 03:59N 53°21' W 006°13'3 5.8
2017-Jul-18 03:30N 53°21' W 006°08'815.7
2017-Jul-18 03:00N 53°23' W 005°56'714.1
2017-Jul-18 02:30N 53°26' W 005°45'713.9
2017-Jul-18 01:58N 53°28' W 005°33'817.3
2017-Jul-18 01:30N 53°29' W 005°20'1018.6
2017-Jul-18 00:58N 53°32' W 005°04'818.1
2017-Jul-18 00:30N 53°35' W 004°50'1518.4
2017-Jul-17 23:40N 53°37' W 004°25'319.0
2017-Jul-17 23:30N 53°37' W 004°20'1019.3
2017-Jul-17 23:00N 53°36' W 004°04'1019.4
2017-Jul-17 22:30N 53°34' W 003°47'1019.5
2017-Jul-17 22:00N 53°33' W 003°31'1019.4
2017-Jul-17 21:30N 53°31' W 003°15'816.6
2017-Jul-17 21:00N 53°28' W 003°03'1 2.2
2017-Jul-17 20:30N 53°27' W 003°01'0 0.9
2017-Jul-17 20:00N 53°27' W 003°01'0 0.0
2017-Jul-17 19:31N 53°27' W 003°01'0 0.0
2017-Jul-17 19:00N 53°27' W 003°01'0 0.0
2017-Jul-17 18:30N 53°27' W 003°01'0 0.0
2017-Jul-17 18:00N 53°27' W 003°01'0 0.0
2017-Jul-17 17:31N 53°27' W 003°01'0 0.0
2017-Jul-17 17:00N 53°27' W 003°01'0 0.0
2017-Jul-17 16:30N 53°27' W 003°01'0 0.0
2017-Jul-17 16:00N 53°27' W 003°01'0 0.0
2017-Jul-17 15:30N 53°27' W 003°01'0 0.0
2017-Jul-17 15:00N 53°27' W 003°01'0 0.0
2017-Jul-17 14:30N 53°27' W 003°01'0 0.0
2017-Jul-17 14:00N 53°27' W 003°01'0 0.0
2017-Jul-17 13:30N 53°27' W 003°01'0 0.0
2017-Jul-17 13:00N 53°27' W 003°01'0 0.0
2017-Jul-17 12:30N 53°27' W 003°01'0 0.0
2017-Jul-17 12:00N 53°27' W 003°01'0 0.0
2017-Jul-17 11:30N 53°27' W 003°01'0 0.0
2017-Jul-17 11:00N 53°27' W 003°01'0 0.0
2017-Jul-17 10:30N 53°27' W 003°01'0 0.0
2017-Jul-17 10:00N 53°27' W 003°01'0 0.0
2017-Jul-17 09:30N 53°27' W 003°01'0 0.0
2017-Jul-17 09:00N 53°27' W 003°01'0 0.0
2017-Jul-17 08:30N 53°27' W 003°01'0 0.0
2017-Jul-17 08:00N 53°27' W 003°01'0 0.0
2017-Jul-17 07:30N 53°27' W 003°01'0 0.0
2017-Jul-17 07:00N 53°27' W 003°01'0 0.0
2017-Jul-17 06:30N 53°27' W 003°01'0 0.0
2017-Jul-17 06:00N 53°27' W 003°01'0 0.0
2017-Jul-17 05:30N 53°27' W 003°01'0 0.0
2017-Jul-17 05:00N 53°27' W 003°01'0 0.0
2017-Jul-17 04:30N 53°27' W 003°01'0 0.8
2017-Jul-17 04:00N 53°27' W 003°01'2 4.6
2017-Jul-17 03:30N 53°28' W 003°04'816.0
2017-Jul-17 03:00N 53°31' W 003°17'917.3
2017-Jul-17 02:30N 53°31' W 003°31'815.6
2017-Jul-17 02:00N 53°32' W 003°45'816.1
2017-Jul-17 01:30N 53°31' W 003°58'815.1
2017-Jul-17 01:00N 53°29' W 004°10'714.3
2017-Jul-17 00:30N 53°32' W 004°22'5614.3
2017-Jul-16 20:36N 53°22' W 005°54'216.3
2017-Jul-16 20:30N 53°22' W 005°57'815.1
2017-Jul-16 20:00N 53°21' W 006°09'2 4.5
2017-Jul-16 19:29N 53°21' W 006°13'0 0.0
2017-Jul-16 18:57N 53°21' W 006°13'0 0.0
2017-Jul-16 18:25N 53°21' W 006°13'0 0.0
2017-Jul-16 18:00N 53°21' W 006°13'0 0.0
2017-Jul-16 17:30N 53°21' W 006°13'0 0.0
2017-Jul-16 16:57N 53°21' W 006°13'0 0.0
2017-Jul-16 16:25N 53°21' W 006°13'0 0.0
2017-Jul-16 16:00N 53°21' W 006°13'0 0.0
2017-Jul-16 15:28N 53°21' W 006°13'0 0.0
2017-Jul-16 14:53N 53°21' W 006°13'0 0.0
2017-Jul-16 14:30N 53°21' W 006°13'0 0.0
2017-Jul-16 13:53N 53°21' W 006°13'0 0.0
2017-Jul-16 13:26N 53°21' W 006°13'0 0.0
2017-Jul-16 12:46N 53°21' W 006°13'0 0.0
2017-Jul-16 12:25N 53°21' W 006°13'0 0.0
2017-Jul-16 11:55N 53°21' W 006°13'0 0.0
2017-Jul-16 11:16N 53°21' W 006°13'0 0.0
2017-Jul-16 11:00N 53°21' W 006°13'0 0.0
2017-Jul-16 10:30N 53°21' W 006°13'0 0.0
2017-Jul-16 10:00N 53°21' W 006°13'0 0.0
2017-Jul-16 09:20N 53°21' W 006°13'0 0.0
2017-Jul-16 09:00N 53°21' W 006°13'0 0.0
2017-Jul-16 08:30N 53°21' W 006°13'0 0.0
2017-Jul-16 08:00N 53°21' W 006°13'0 0.0
2017-Jul-16 07:26N 53°21' W 006°13'0 0.0
2017-Jul-16 06:56N 53°21' W 006°13'0 0.0
2017-Jul-16 06:26N 53°21' W 006°13'0 0.0
2017-Jul-16 05:59N 53°21' W 006°13'0 0.0
2017-Jul-16 05:30N 53°21' W 006°13'0 0.0
2017-Jul-16 04:59N 53°21' W 006°13'0 0.2
2017-Jul-16 04:30N 53°21' W 006°13'5 9.4
2017-Jul-16 04:00N 53°20' W 006°05'1017.8
2017-Jul-16 03:27N 53°24' W 005°50'6614.5
2017-Jul-15 22:53N 53°35' W 004°01'813.6
2017-Jul-15 22:19N 53°34' W 003°48'513.7
2017-Jul-15 21:58N 53°34' W 003°40'714.4
2017-Jul-15 21:30N 53°33' W 003°29'816.0
2017-Jul-15 21:00N 53°32' W 003°16'815.7
2017-Jul-15 20:30N 53°28' W 003°03'2 3.7
2017-Jul-15 20:00N 53°27' W 003°01'0 0.9
2017-Jul-15 19:30N 53°27' W 003°01'0 0.0
2017-Jul-15 19:00N 53°27' W 003°01'0 0.0
2017-Jul-15 18:30N 53°27' W 003°01'0 0.0
2017-Jul-15 18:00N 53°27' W 003°01'0 0.0
2017-Jul-15 17:30N 53°27' W 003°01'0 0.0
2017-Jul-15 17:00N 53°27' W 003°01'0 0.0
2017-Jul-15 16:30N 53°27' W 003°01'0 0.0
2017-Jul-15 16:00N 53°27' W 003°01'0 0.0
2017-Jul-15 15:31N 53°27' W 003°01'0 0.9
2017-Jul-15 15:00N 53°27' W 003°01'1212.1
2017-Jul-15 14:00N 53°31' W 003°20'917.5
2017-Jul-15 13:30N 53°31' W 003°35'917.3
2017-Jul-15 13:00N 53°32' W 003°49'816.5
2017-Jul-15 12:30N 53°33' W 004°03'5917.8
2017-Jul-15 09:10N 53°25' W 005°42'318.4
2017-Jul-15 08:59N 53°24' W 005°47'918.6
2017-Jul-15 08:30N 53°21' W 006°02'712.4
2017-Jul-15 07:57N 53°21' W 006°13'0 0.1
2017-Jul-15 07:25N 53°21' W 006°13'0 0.0
2017-Jul-15 06:24N 53°21' W 006°13'0 0.0
2017-Jul-15 05:57N 53°21' W 006°13'0 0.0
2017-Jul-15 04:23N 53°21' W 006°13'0 0.0
2017-Jul-15 04:00N 53°21' W 006°13'3 5.7
2017-Jul-15 03:30N 53°21' W 006°08'816.3
2017-Jul-15 02:59N 53°23' W 005°55'6516.5
2017-Jul-14 23:03N 53°35' W 004°08'116.1
2017-Jul-14 23:01N 53°35' W 004°07'917.0
2017-Jul-14 22:28N 53°34' W 003°51'817.8
2017-Jul-14 22:00N 53°33' W 003°37'918.2
2017-Jul-14 21:30N 53°32' W 003°22'917.4
2017-Jul-14 21:00N 53°32' W 003°08'611.9
2017-Jul-14 20:30N 53°27' W 003°01'0 0.2
2017-Jul-14 20:00N 53°27' W 003°01'0 0.7
2017-Jul-14 19:31N 53°27' W 003°01'0 0.0
2017-Jul-14 19:00N 53°27' W 003°01'0 0.0
2017-Jul-14 18:30N 53°27' W 003°01'0 0.0
2017-Jul-14 18:00N 53°27' W 003°01'0 0.0
2017-Jul-14 17:30N 53°27' W 003°01'0 0.0
2017-Jul-14 17:01N 53°27' W 003°01'0 0.0
2017-Jul-14 16:30N 53°27' W 003°01'0 0.0
2017-Jul-14 16:00N 53°27' W 003°01'0 0.0
2017-Jul-14 15:30N 53°27' W 003°01'0 0.8
2017-Jul-14 15:00N 53°27' W 003°01'4 7.9
2017-Jul-14 14:30N 53°30' W 003°06'816.7
2017-Jul-14 14:00N 53°31' W 003°19'917.3
2017-Jul-14 13:30N 53°31' W 003°34'816.9
2017-Jul-14 13:00N 53°31' W 003°48'917.2
2017-Jul-14 12:30N 53°33' W 004°03'6718.6
2017-Jul-14 08:52N 53°22' W 005°55'718.5
2017-Jul-14 08:30N 53°20' W 006°05'  
Track history (hours):
 
Tides and Currents Weather Stations Pressure Air Temp Water Temp Dewpoint Dewpoint Depression Visibility Wind Speed Wind Dir Waves Ship Positions

Tahitian Princess

Operator: P & O Irish Sea Ltd

Last reported at 2017-Jul-24 08:00 UTC. Time now 2017-Jul-24 08:25 UTC.
Position N 53°27' W 003°01'.

Length 167 m; draft 5.8 m.

Type: Passenger vessel. MMSI: 310362000.

Date/timePositionNaut miles runAvg speedWind from/ knotsBaromVisibWave heightAir tempDewpointWater temp
2017-Jul-24 08:00N 53°27' W 003°01'0 0.0
2017-Jul-24 07:30N 53°27' W 003°01'0 0.0
2017-Jul-24 07:00N 53°27' W 003°01'0 0.0
2017-Jul-24 06:30N 53°27' W 003°01'0 0.0
2017-Jul-24 06:00N 53°27' W 003°01'0 0.0
2017-Jul-24 05:30N 53°27' W 003°01'0 0.3
2017-Jul-24 05:00N 53°27' W 003°01'0 0.8
2017-Jul-24 04:30N 53°27' W 003°01'0 0.7
2017-Jul-24 04:00N 53°27' W 003°02'510.5
2017-Jul-24 03:30N 53°31' W 003°07'714.6
2017-Jul-24 03:00N 53°31' W 003°20'713.9
2017-Jul-24 02:30N 53°31' W 003°31'713.1
2017-Jul-24 02:00N 53°31' W 003°42'714.8
2017-Jul-24 01:30N 53°32' W 003°54'714.6
2017-Jul-24 01:00N 53°33' W 004°07'6316.1
2017-Jul-23 21:03N 53°23' W 005°52'617.7
2017-Jul-23 20:43N 53°21' W 006°01'416.3
2017-Jul-23 20:28N 53°21' W 006°08'3 5.9
2017-Jul-23 20:00N 53°21' W 006°13'0 0.1
2017-Jul-23 16:06N 53°21' W 006°13'0 0.0
2017-Jul-23 12:33N 53°21' W 006°13'0 0.0
2017-Jul-23 06:24N 53°21' W 006°13'0 0.0
2017-Jul-23 04:55N 53°21' W 006°13'0 1.0
2017-Jul-23 04:30N 53°21' W 006°12'510.6
2017-Jul-23 04:00N 53°20' W 006°04'816.0
2017-Jul-23 03:30N 53°25' W 005°52'4614.9
2017-Jul-23 00:26N 53°37' W 004°38'815.5
2017-Jul-22 23:53N 53°37' W 004°24'1015.4
2017-Jul-22 23:12N 53°35' W 004°06'417.8
2017-Jul-22 23:00N 53°35' W 004°00'917.8
2017-Jul-22 22:30N 53°34' W 003°45'917.0
2017-Jul-22 22:00N 53°33' W 003°31'816.9
2017-Jul-22 21:30N 53°32' W 003°17'815.6
2017-Jul-22 21:00N 53°29' W 003°05'3 6.2
2017-Jul-22 20:30N 53°27' W 003°01'0 0.9
2017-Jul-22 20:00N 53°27' W 003°01'0 0.0
2017-Jul-22 19:28N 53°27' W 003°01'0 0.0
2017-Jul-22 18:58N 53°27' W 003°01'0 0.0
2017-Jul-22 18:30N 53°27' W 003°01'0 0.0
2017-Jul-22 18:00N 53°27' W 003°01'0 0.0
2017-Jul-22 17:30N 53°27' W 003°01'0 0.0
2017-Jul-22 17:00N 53°27' W 003°01'0 0.0
2017-Jul-22 16:30N 53°27' W 003°01'0 0.0
2017-Jul-22 16:01N 53°27' W 003°01'0 0.8
2017-Jul-22 15:30N 53°27' W 003°01'0 0.4
2017-Jul-22 15:01N 53°27' W 003°01'1212.2
2017-Jul-22 14:00N 53°31' W 003°20'816.5
2017-Jul-22 13:30N 53°31' W 003°34'816.1
2017-Jul-22 13:00N 53°31' W 003°48'917.1
2017-Jul-22 12:30N 53°32' W 004°02'6418.2
2017-Jul-22 08:59N 53°23' W 005°49'1019.4
2017-Jul-22 08:29N 53°20' W 006°04'511.3
2017-Jul-22 08:00N 53°21' W 006°13'0 0.3
2017-Jul-22 07:18N 53°21' W 006°13'0 0.0
2017-Jul-22 07:00N 53°21' W 006°13'0 0.0
2017-Jul-22 06:30N 53°21' W 006°13'0 0.0
2017-Jul-22 05:54N 53°21' W 006°13'0 0.0
2017-Jul-22 05:29N 53°21' W 006°13'0 0.0
2017-Jul-22 04:57N 53°21' W 006°13'0 0.0
2017-Jul-22 04:28N 53°21' W 006°13'0 0.2
2017-Jul-22 03:59N 53°21' W 006°13'4 8.1
2017-Jul-22 03:30N 53°20' W 006°06'1016.9
2017-Jul-22 02:56N 53°24' W 005°51'6416.9
2017-Jul-21 23:10N 53°36' W 004°06'319.7
2017-Jul-21 23:00N 53°35' W 004°01'1019.7
2017-Jul-21 22:30N 53°34' W 003°45'1019.1
2017-Jul-21 22:00N 53°33' W 003°29'918.6
2017-Jul-21 21:30N 53°31' W 003°13'815.8
2017-Jul-21 21:00N 53°27' W 003°02'1 2.2
2017-Jul-21 20:30N 53°26' W 003°01'1 1.2
2017-Jul-21 20:00N 53°27' W 003°01'1 1.0
2017-Jul-21 19:30N 53°27' W 003°01'0 0.0
2017-Jul-21 19:00N 53°27' W 003°01'0 0.0
2017-Jul-21 18:30N 53°27' W 003°01'0 0.0
2017-Jul-21 18:00N 53°27' W 003°01'0 0.0
2017-Jul-21 17:30N 53°27' W 003°01'0 0.0
2017-Jul-21 17:00N 53°27' W 003°01'0 0.0
2017-Jul-21 16:30N 53°27' W 003°01'0 0.0
2017-Jul-21 16:00N 53°27' W 003°01'0 0.8
2017-Jul-21 15:30N 53°27' W 003°01'0 0.4
2017-Jul-21 15:00N 53°27' W 003°01'612.2
2017-Jul-21 14:31N 53°31' W 003°08'815.7
2017-Jul-21 14:00N 53°31' W 003°21'816.6
2017-Jul-21 13:31N 53°31' W 003°35'917.2
2017-Jul-21 13:00N 53°32' W 003°49'917.4
2017-Jul-21 12:30N 53°33' W 004°04'6318.6
2017-Jul-21 09:06N 53°23' W 005°49'719.8
2017-Jul-21 08:45N 53°21' W 005°60'415.3
2017-Jul-21 08:28N 53°20' W 006°07'4 7.9
2017-Jul-21 08:00N 53°21' W 006°13'0 0.0
2017-Jul-21 07:10N 53°21' W 006°13'0 0.0
2017-Jul-21 04:46N 53°21' W 006°13'0 0.0
2017-Jul-21 04:16N 53°21' W 006°13'0 0.3
2017-Jul-21 03:54N 53°21' W 006°13'711.2
2017-Jul-21 03:18N 53°21' W 006°02'615.9
2017-Jul-21 02:57N 53°23' W 005°53'6816.1
2017-Jul-20 22:43N 53°35' W 004°00'418.2
2017-Jul-20 22:30N 53°35' W 003°54'917.7
2017-Jul-20 21:59N 53°34' W 003°38'817.3
2017-Jul-20 21:30N 53°33' W 003°24'917.3
2017-Jul-20 21:00N 53°32' W 003°10'714.2
2017-Jul-20 20:30N 53°27' W 003°01'0 0.9
2017-Jul-20 20:00N 53°27' W 003°01'0 0.0
2017-Jul-20 19:30N 53°27' W 003°01'0 0.0
2017-Jul-20 19:00N 53°27' W 003°01'0 0.0
2017-Jul-20 18:31N 53°27' W 003°01'0 0.0
2017-Jul-20 18:00N 53°27' W 003°01'0 0.0
2017-Jul-20 17:30N 53°27' W 003°01'0 0.0
2017-Jul-20 17:00N 53°27' W 003°01'0 0.0
2017-Jul-20 16:31N 53°27' W 003°01'0 0.8
2017-Jul-20 16:00N 53°27' W 003°01'0 0.0
2017-Jul-20 15:31N 53°27' W 003°01'0 0.5
2017-Jul-20 15:01N 53°27' W 003°01'1212.0
2017-Jul-20 14:00N 53°31' W 003°20'918.3
2017-Jul-20 13:30N 53°31' W 003°36'917.9
2017-Jul-20 13:00N 53°32' W 003°51'7218.7
2017-Jul-20 09:09N 53°23' W 005°50'618.6
2017-Jul-20 08:50N 53°21' W 005°60'616.4
2017-Jul-20 08:30N 53°21' W 006°09'3 4.7
2017-Jul-20 07:57N 53°21' W 006°13'0 0.0
2017-Jul-20 07:30N 53°21' W 006°13'0 0.0
2017-Jul-20 06:25N 53°21' W 006°13'0 0.0
2017-Jul-20 05:59N 53°21' W 006°13'0 0.0
2017-Jul-20 04:33N 53°21' W 006°13'0 0.0
2017-Jul-20 04:30N 53°21' W 006°13'0 0.2
2017-Jul-20 03:59N 53°21' W 006°13'4 9.1
2017-Jul-20 03:30N 53°20' W 006°06'815.9
2017-Jul-20 02:59N 53°23' W 005°53'6616.8
2017-Jul-19 23:02N 53°35' W 004°03'117.5
2017-Jul-19 23:00N 53°35' W 004°02'917.3
2017-Jul-19 22:29N 53°34' W 003°47'816.9
2017-Jul-19 22:00N 53°33' W 003°33'917.3
2017-Jul-19 21:30N 53°32' W 003°19'817.0
2017-Jul-19 21:00N 53°30' W 003°05'4 7.3
2017-Jul-19 20:30N 53°27' W 003°01'0 0.0
2017-Jul-19 20:00N 53°27' W 003°01'0 0.9
2017-Jul-19 19:30N 53°27' W 003°01'0 0.0
2017-Jul-19 19:00N 53°27' W 003°01'0 0.0
2017-Jul-19 18:30N 53°27' W 003°01'0 0.0
2017-Jul-19 18:00N 53°27' W 003°01'0 0.0
2017-Jul-19 17:31N 53°27' W 003°01'0 0.0
2017-Jul-19 17:00N 53°27' W 003°01'0 0.0
2017-Jul-19 16:30N 53°27' W 003°01'0 0.0
2017-Jul-19 16:00N 53°27' W 003°01'0 0.8
2017-Jul-19 15:30N 53°27' W 003°01'0 0.0
2017-Jul-19 15:00N 53°27' W 003°01'3 6.5
2017-Jul-19 14:30N 53°29' W 003°05'714.6
2017-Jul-19 14:00N 53°31' W 003°17'918.5
2017-Jul-19 13:30N 53°31' W 003°32'918.1
2017-Jul-19 13:00N 53°32' W 003°48'918.1
2017-Jul-19 12:30N 53°34' W 004°03'6319.1
2017-Jul-19 09:12N 53°23' W 005°47'520.4
2017-Jul-19 08:57N 53°22' W 005°56'817.3
2017-Jul-19 08:29N 53°21' W 006°09'3 5.3
2017-Jul-19 08:00N 53°21' W 006°13'0 0.0
2017-Jul-19 07:30N 53°21' W 006°13'0 0.0
2017-Jul-19 06:57N 53°21' W 006°13'0 0.0
2017-Jul-19 06:30N 53°21' W 006°13'0 0.0
2017-Jul-19 06:00N 53°21' W 006°13'0 0.0
2017-Jul-19 05:31N 53°21' W 006°13'0 0.0
2017-Jul-19 04:58N 53°21' W 006°13'0 0.0
2017-Jul-19 04:27N 53°21' W 006°13'0 0.1
2017-Jul-19 04:00N 53°21' W 006°13'4 6.9
2017-Jul-19 03:30N 53°21' W 006°07'816.5
2017-Jul-19 03:00N 53°23' W 005°54'816.8
2017-Jul-19 02:30N 53°27' W 005°41'5618.3
2017-Jul-18 23:27N 53°35' W 004°08'1319.9
2017-Jul-18 22:49N 53°34' W 003°47'619.6
2017-Jul-18 22:30N 53°34' W 003°37'1019.8
2017-Jul-18 22:00N 53°33' W 003°20'917.8
2017-Jul-18 21:30N 53°30' W 003°06'4 8.9
2017-Jul-18 21:00N 53°27' W 003°01'0 0.9
2017-Jul-18 20:30N 53°27' W 003°01'0 0.0
2017-Jul-18 20:00N 53°27' W 003°01'0 0.0
2017-Jul-18 19:30N 53°27' W 003°01'0 0.0
2017-Jul-18 19:00N 53°27' W 003°01'0 0.0
2017-Jul-18 18:30N 53°27' W 003°01'0 0.0
2017-Jul-18 18:00N 53°27' W 003°01'0 0.0
2017-Jul-18 17:30N 53°27' W 003°01'0 0.0
2017-Jul-18 17:00N 53°27' W 003°01'0 0.0
2017-Jul-18 16:30N 53°27' W 003°01'0 0.0
2017-Jul-18 16:00N 53°27' W 003°01'0 0.4
2017-Jul-18 15:30N 53°27' W 003°01'0 0.6
2017-Jul-18 15:00N 53°27' W 003°01'1212.0
2017-Jul-18 14:00N 53°31' W 003°20'1018.9
2017-Jul-18 13:30N 53°31' W 003°36'918.6
2017-Jul-18 13:00N 53°31' W 003°51'1120.5
2017-Jul-18 12:29N 53°34' W 004°09'2019.9
2017-Jul-18 11:28N 53°35' W 004°43'919.5
2017-Jul-18 11:00N 53°33' W 004°58'1019.4
2017-Jul-18 10:29N 53°30' W 005°14'918.3
2017-Jul-18 10:00N 53°27' W 005°29'918.5
2017-Jul-18 09:29N 53°24' W 005°44'1018.3
2017-Jul-18 08:56N 53°21' W 005°60'512.7
2017-Jul-18 08:30N 53°21' W 006°09'3 5.1
2017-Jul-18 08:00N 53°21' W 006°13'0 0.0
2017-Jul-18 07:30N 53°21' W 006°13'0 0.0
2017-Jul-18 06:58N 53°21' W 006°13'0 0.0
2017-Jul-18 06:27N 53°21' W 006°13'0 0.0
2017-Jul-18 06:00N 53°21' W 006°13'0 0.0
2017-Jul-18 05:30N 53°21' W 006°13'0 0.0
2017-Jul-18 04:59N 53°21' W 006°13'0 0.0
2017-Jul-18 04:30N 53°21' W 006°13'0 0.0
2017-Jul-18 03:59N 53°21' W 006°13'3 5.8
2017-Jul-18 03:30N 53°21' W 006°08'815.7
2017-Jul-18 03:00N 53°23' W 005°56'714.1
2017-Jul-18 02:30N 53°26' W 005°45'713.9
2017-Jul-18 01:58N 53°28' W 005°33'817.3
2017-Jul-18 01:30N 53°29' W 005°20'1018.6
2017-Jul-18 00:58N 53°32' W 005°04'818.1
2017-Jul-18 00:30N 53°35' W 004°50'1518.4
2017-Jul-17 23:40N 53°37' W 004°25'319.0
2017-Jul-17 23:30N 53°37' W 004°20'1019.3
2017-Jul-17 23:00N 53°36' W 004°04'1019.4
2017-Jul-17 22:30N 53°34' W 003°47'1019.5
2017-Jul-17 22:00N 53°33' W 003°31'1019.4
2017-Jul-17 21:30N 53°31' W 003°15'816.6
2017-Jul-17 21:00N 53°28' W 003°03'1 2.2
2017-Jul-17 20:30N 53°27' W 003°01'0 0.9
2017-Jul-17 20:00N 53°27' W 003°01'0 0.0
2017-Jul-17 19:31N 53°27' W 003°01'0 0.0
2017-Jul-17 19:00N 53°27' W 003°01'0 0.0
2017-Jul-17 18:30N 53°27' W 003°01'0 0.0
2017-Jul-17 18:00N 53°27' W 003°01'0 0.0
2017-Jul-17 17:31N 53°27' W 003°01'0 0.0
2017-Jul-17 17:00N 53°27' W 003°01'0 0.0
2017-Jul-17 16:30N 53°27' W 003°01'0 0.0
2017-Jul-17 16:00N 53°27' W 003°01'0 0.0
2017-Jul-17 15:30N 53°27' W 003°01'0 0.0
2017-Jul-17 15:00N 53°27' W 003°01'0 0.0
2017-Jul-17 14:30N 53°27' W 003°01'0 0.0
2017-Jul-17 14:00N 53°27' W 003°01'0 0.0
2017-Jul-17 13:30N 53°27' W 003°01'0 0.0
2017-Jul-17 13:00N 53°27' W 003°01'0 0.0
2017-Jul-17 12:30N 53°27' W 003°01'0 0.0
2017-Jul-17 12:00N 53°27' W 003°01'0 0.0
2017-Jul-17 11:30N 53°27' W 003°01'0 0.0
2017-Jul-17 11:00N 53°27' W 003°01'0 0.0
2017-Jul-17 10:30N 53°27' W 003°01'0 0.0
2017-Jul-17 10:00N 53°27' W 003°01'0 0.0
2017-Jul-17 09:30N 53°27' W 003°01'0 0.0
2017-Jul-17 09:00N 53°27' W 003°01'0 0.0
2017-Jul-17 08:30N 53°27' W 003°01'0 0.0
2017-Jul-17 08:00N 53°27' W 003°01'0 0.0
2017-Jul-17 07:30N 53°27' W 003°01'0 0.0
2017-Jul-17 07:00N 53°27' W 003°01'0 0.0
2017-Jul-17 06:30N 53°27' W 003°01'0 0.0
2017-Jul-17 06:00N 53°27' W 003°01'0 0.0
2017-Jul-17 05:30N 53°27' W 003°01'0 0.0
2017-Jul-17 05:00N 53°27' W 003°01'0 0.0
2017-Jul-17 04:30N 53°27' W 003°01'0 0.8
2017-Jul-17 04:00N 53°27' W 003°01'2 4.6
2017-Jul-17 03:30N 53°28' W 003°04'816.0
2017-Jul-17 03:00N 53°31' W 003°17'917.3
2017-Jul-17 02:30N 53°31' W 003°31'815.6
2017-Jul-17 02:00N 53°32' W 003°45'816.1
2017-Jul-17 01:30N 53°31' W 003°58'815.1
2017-Jul-17 01:00N 53°29' W 004°10'714.3
2017-Jul-17 00:30N 53°32' W 004°22'5614.3
2017-Jul-16 20:36N 53°22' W 005°54'216.3
2017-Jul-16 20:30N 53°22' W 005°57'815.1
2017-Jul-16 20:00N 53°21' W 006°09'2 4.5
2017-Jul-16 19:29N 53°21' W 006°13'0 0.0
2017-Jul-16 18:57N 53°21' W 006°13'0 0.0
2017-Jul-16 18:25N 53°21' W 006°13'0 0.0
2017-Jul-16 18:00N 53°21' W 006°13'0 0.0
2017-Jul-16 17:30N 53°21' W 006°13'0 0.0
2017-Jul-16 16:57N 53°21' W 006°13'0 0.0
2017-Jul-16 16:25N 53°21' W 006°13'0 0.0
2017-Jul-16 16:00N 53°21' W 006°13'0 0.0
2017-Jul-16 15:28N 53°21' W 006°13'0 0.0
2017-Jul-16 14:53N 53°21' W 006°13'0 0.0
2017-Jul-16 14:30N 53°21' W 006°13'0 0.0
2017-Jul-16 13:53N 53°21' W 006°13'0 0.0
2017-Jul-16 13:26N 53°21' W 006°13'0 0.0
2017-Jul-16 12:46N 53°21' W 006°13'0 0.0
2017-Jul-16 12:25N 53°21' W 006°13'0 0.0
2017-Jul-16 11:55N 53°21' W 006°13'0 0.0
2017-Jul-16 11:16N 53°21' W 006°13'0 0.0
2017-Jul-16 11:00N 53°21' W 006°13'0 0.0
2017-Jul-16 10:30N 53°21' W 006°13'0 0.0
2017-Jul-16 10:00N 53°21' W 006°13'0 0.0
2017-Jul-16 09:20N 53°21' W 006°13'0 0.0
2017-Jul-16 09:00N 53°21' W 006°13'0 0.0
2017-Jul-16 08:30N 53°21' W 006°13'0 0.0
2017-Jul-16 08:00N 53°21' W 006°13'0 0.0
2017-Jul-16 07:26N 53°21' W 006°13'0 0.0
2017-Jul-16 06:56N 53°21' W 006°13'0 0.0
2017-Jul-16 06:26N 53°21' W 006°13'0 0.0
2017-Jul-16 05:59N 53°21' W 006°13'0 0.0
2017-Jul-16 05:30N 53°21' W 006°13'0 0.0
2017-Jul-16 04:59N 53°21' W 006°13'0 0.2
2017-Jul-16 04:30N 53°21' W 006°13'5 9.4
2017-Jul-16 04:00N 53°20' W 006°05'1017.8
2017-Jul-16 03:27N 53°24' W 005°50'6614.5
2017-Jul-15 22:53N 53°35' W 004°01'813.6
2017-Jul-15 22:19N 53°34' W 003°48'513.7
2017-Jul-15 21:58N 53°34' W 003°40'714.4
2017-Jul-15 21:30N 53°33' W 003°29'816.0
2017-Jul-15 21:00N 53°32' W 003°16'815.7
2017-Jul-15 20:30N 53°28' W 003°03'2 3.7
2017-Jul-15 20:00N 53°27' W 003°01'0 0.9
2017-Jul-15 19:30N 53°27' W 003°01'0 0.0
2017-Jul-15 19:00N 53°27' W 003°01'0 0.0
2017-Jul-15 18:30N 53°27' W 003°01'0 0.0
2017-Jul-15 18:00N 53°27' W 003°01'0 0.0
2017-Jul-15 17:30N 53°27' W 003°01'0 0.0
2017-Jul-15 17:00N 53°27' W 003°01'0 0.0
2017-Jul-15 16:30N 53°27' W 003°01'0 0.0
2017-Jul-15 16:00N 53°27' W 003°01'0 0.0
2017-Jul-15 15:31N 53°27' W 003°01'0 0.9
2017-Jul-15 15:00N 53°27' W 003°01'1212.1
2017-Jul-15 14:00N 53°31' W 003°20'917.5
2017-Jul-15 13:30N 53°31' W 003°35'917.3
2017-Jul-15 13:00N 53°32' W 003°49'816.5
2017-Jul-15 12:30N 53°33' W 004°03'5917.8
2017-Jul-15 09:10N 53°25' W 005°42'318.4
2017-Jul-15 08:59N 53°24' W 005°47'918.6
2017-Jul-15 08:30N 53°21' W 006°02'712.4
2017-Jul-15 07:57N 53°21' W 006°13'0 0.1
2017-Jul-15 07:25N 53°21' W 006°13'0 0.0
2017-Jul-15 06:24N 53°21' W 006°13'0 0.0
2017-Jul-15 05:57N 53°21' W 006°13'0 0.0
2017-Jul-15 04:23N 53°21' W 006°13'0 0.0
2017-Jul-15 04:00N 53°21' W 006°13'3 5.7
2017-Jul-15 03:30N 53°21' W 006°08'816.3
2017-Jul-15 02:59N 53°23' W 005°55'6516.5
2017-Jul-14 23:03N 53°35' W 004°08'116.1
2017-Jul-14 23:01N 53°35' W 004°07'917.0
2017-Jul-14 22:28N 53°34' W 003°51'817.8
2017-Jul-14 22:00N 53°33' W 003°37'918.2
2017-Jul-14 21:30N 53°32' W 003°22'917.4
2017-Jul-14 21:00N 53°32' W 003°08'611.9
2017-Jul-14 20:30N 53°27' W 003°01'0 0.2
2017-Jul-14 20:00N 53°27' W 003°01'0 0.7
2017-Jul-14 19:31N 53°27' W 003°01'0 0.0
2017-Jul-14 19:00N 53°27' W 003°01'0 0.0
2017-Jul-14 18:30N 53°27' W 003°01'0 0.0
2017-Jul-14 18:00N 53°27' W 003°01'0 0.0
2017-Jul-14 17:30N 53°27' W 003°01'0 0.0
2017-Jul-14 17:01N 53°27' W 003°01'0 0.0
2017-Jul-14 16:30N 53°27' W 003°01'0 0.0
2017-Jul-14 16:00N 53°27' W 003°01'0 0.0
2017-Jul-14 15:30N 53°27' W 003°01'0 0.8
2017-Jul-14 15:00N 53°27' W 003°01'4 7.9
2017-Jul-14 14:30N 53°30' W 003°06'816.7
2017-Jul-14 14:00N 53°31' W 003°19'917.3
2017-Jul-14 13:30N 53°31' W 003°34'816.9
2017-Jul-14 13:00N 53°31' W 003°48'917.2
2017-Jul-14 12:30N 53°33' W 004°03'6718.6
2017-Jul-14 08:52N 53°22' W 005°55'718.5
2017-Jul-14 08:30N 53°20' W 006°05'  

Dump ship's entire track history